ENLX weather

Lørenskog Heliport, Ahus
Lørenskog, Akershus, Norway

Public forecast

Using degrees Celsius for public forecast. Weather courtesy of forecast.io.

METAR (pilot weather report)

Closest report is Oslo, Fornebu Airport, 11.3 nm (21.0 km) W. Retrieved 2019/05/25 07:20 UTC (0 seconds ago):

ENFB 250720Z AUTO 35007KT 9999NDV SCT023/// BKN052/// 09/04 Q1011 W///S4

TAF (pilot weather forecast)

Closest forecast is Oslo Gardermoen Airport, 16.1 nm (29.8 km) NNE. Retrieved 2019/05/25 06:57 UTC (22 minutes ago):

TAF ENGM 250500Z 2506/2606 34008KT CAVOK BECMG 2512/2514 20010KT TEMPO 2517/2524 VRB08KT 4000 SHRA FEW030CB BKN040 PROB30 2518/2521 TSRA BECMG 2521/2523 32010KT